Airport View

Enter AWOS ICAO identifier for current METAR.

ex. KFNL

KSCD 250955Z AUTO 00000KT 10SM OVC007 19/19 A2993 RMK AO2 T01870186

25 Oct 2020 10:15

Frequency: 119.125

Phone: 256-249-2620

Other Area AWOS: KALX - KPLR - KEET - KASN

TAF KEET 250520Z 2506/2606 00000KT 4SM -DZ BR OVC002 FM251400 00000KT 5SM -DZ BR OVC004 FM251700 VRB02KT P6SM OVC010 FM251900 VRB02KT P6SM OVC023 FM260200 00000KT P6SM OVC018